sensor_id;sensor_type;location;lat;lon;timestamp;temperature;humidity
68385;DHT22;55336;43.062;25.626;2022-10-16T00:02:06;4.10;99.90
68385;DHT22;55336;43.062;25.626;2022-10-16T00:04:32;4.00;99.90
68385;DHT22;55336;43.062;25.626;2022-10-16T00:06:58;4.10;99.90
68385;DHT22;55336;43.062;25.626;2022-10-16T00:09:24;4.00;99.90
68385;DHT22;55336;43.062;25.626;2022-10-16T00:11:50;4.00;99.90
68385;DHT22;55336;43.062;25.626;2022-10-16T00:14:16;3.90;99.90
68385;DHT22;55336;43.062;25.626;2022-10-16T00:16:42;3.90;99.90
68385;DHT22;55336;43.062;25.626;2022-10-16T00:19:09;3.90;99.90
68385;DHT22;55336;43.062;25.626;2022-10-16T00:21:36;3.80;99.90
68385;DHT22;55336;43.062;25.626;2022-10-16T00:24:05;3.80;99.90
68385;DHT22;55336;43.062;25.626;2022-10-16T00:26:33;3.80;99.90
68385;DHT22;55336;43.062;25.626;2022-10-16T00:28:59;3.80;99.90
68385;DHT22;55336;43.062;25.626;2022-10-16T00:31:26;3.70;99.90
68385;DHT22;55336;43.062;25.626;2022-10-16T00:33:52;3.70;99.90
68385;DHT22;55336;43.062;25.626;2022-10-16T00:36:21;3.60;99.90
68385;DHT22;55336;43.062;25.626;2022-10-16T00:38:47;3.50;99.90
68385;DHT22;55336;43.062;25.626;2022-10-16T00:41:16;3.60;99.90
68385;DHT22;55336;43.062;25.626;2022-10-16T00:43:51;3.50;99.90
68385;DHT22;55336;43.062;25.626;2022-10-16T00:51:37;3.50;99.90
68385;DHT22;55336;43.062;25.626;2022-10-16T00:54:09;3.50;99.90
68385;DHT22;55336;43.062;25.626;2022-10-16T00:56:36;3.50;99.90
68385;DHT22;55336;43.062;25.626;2022-10-16T00:59:06;3.50;99.90
68385;DHT22;55336;43.062;25.626;2022-10-16T01:01:33;3.50;99.90
68385;DHT22;55336;43.062;25.626;2022-10-16T01:03:59;3.40;99.90
68385;DHT22;55336;43.062;25.626;2022-10-16T01:07:01;3.30;99.90
68385;DHT22;55336;43.062;25.626;2022-10-16T01:17:18;3.20;99.90
68385;DHT22;55336;43.062;25.626;2022-10-16T01:20:00;3.20;99.90
68385;DHT22;55336;43.062;25.626;2022-10-16T01:22:37;3.10;99.90
68385;DHT22;55336;43.062;25.626;2022-10-16T01:25:09;3.20;99.90
68385;DHT22;55336;43.062;25.626;2022-10-16T01:27:38;3.20;99.90
68385;DHT22;55336;43.062;25.626;2022-10-16T01:30:22;3.20;99.90
68385;DHT22;55336;43.062;25.626;2022-10-16T01:32:53;3.10;99.90
68385;DHT22;55336;43.062;25.626;2022-10-16T01:35:27;3.10;99.90
68385;DHT22;55336;43.062;25.626;2022-10-16T01:38:34;3.10;99.90
68385;DHT22;55336;43.062;25.626;2022-10-16T01:41:17;3.10;99.90
68385;DHT22;55336;43.062;25.626;2022-10-16T01:44:02;3.10;99.90
68385;DHT22;55336;43.062;25.626;2022-10-16T01:46:30;3.10;99.90
68385;DHT22;55336;43.062;25.626;2022-10-16T01:48:58;3.00;99.90
68385;DHT22;55336;43.062;25.626;2022-10-16T01:51:25;3.00;99.90
68385;DHT22;55336;43.062;25.626;2022-10-16T01:53:56;3.00;99.90
68385;DHT22;55336;43.062;25.626;2022-10-16T01:56:24;2.90;99.90
68385;DHT22;55336;43.062;25.626;2022-10-16T01:59:07;3.00;99.90
68385;DHT22;55336;43.062;25.626;2022-10-16T02:01:36;2.90;99.90
68385;DHT22;55336;43.062;25.626;2022-10-16T02:04:31;2.90;99.90
68385;DHT22;55336;43.062;25.626;2022-10-16T02:06:55;2.80;99.90
68385;DHT22;55336;43.062;25.626;2022-10-16T02:09:22;2.80;99.90
68385;DHT22;55336;43.062;25.626;2022-10-16T02:11:48;2.80;99.90
68385;DHT22;55336;43.062;25.626;2022-10-16T02:14:15;2.80;99.90
68385;DHT22;55336;43.062;25.626;2022-10-16T02:16:44;2.80;99.90
68385;DHT22;55336;43.062;25.626;2022-10-16T02:19:12;2.70;99.90
68385;DHT22;55336;43.062;25.626;2022-10-16T02:21:46;2.70;99.90
68385;DHT22;55336;43.062;25.626;2022-10-16T02:26:52;2.70;99.90
68385;DHT22;55336;43.062;25.626;2022-10-16T02:29:23;2.60;99.90
68385;DHT22;55336;43.062;25.626;2022-10-16T02:31:54;2.50;99.90
68385;DHT22;55336;43.062;25.626;2022-10-16T02:34:22;2.60;99.90
68385;DHT22;55336;43.062;25.626;2022-10-16T02:36:50;2.60;99.90
68385;DHT22;55336;43.062;25.626;2022-10-16T02:39:18;2.60;99.90
68385;DHT22;55336;43.062;25.626;2022-10-16T02:41:45;2.50;99.90
68385;DHT22;55336;43.062;25.626;2022-10-16T02:44:11;2.60;99.90
68385;DHT22;55336;43.062;25.626;2022-10-16T02:46:37;2.60;99.90
68385;DHT22;55336;43.062;25.626;2022-10-16T02:49:03;2.60;99.90
68385;DHT22;55336;43.062;25.626;2022-10-16T02:51:29;2.50;99.90
68385;DHT22;55336;43.062;25.626;2022-10-16T02:53:55;2.60;99.90
68385;DHT22;55336;43.062;25.626;2022-10-16T02:56:21;2.60;99.90
68385;DHT22;55336;43.062;25.626;2022-10-16T02:58:47;2.60;99.90
68385;DHT22;55336;43.062;25.626;2022-10-16T03:01:13;2.50;99.90
68385;DHT22;55336;43.062;25.626;2022-10-16T03:03:39;2.50;99.90
68385;DHT22;55336;43.062;25.626;2022-10-16T03:06:05;2.50;99.90
68385;DHT22;55336;43.062;25.626;2022-10-16T03:08:31;2.40;99.90
68385;DHT22;55336;43.062;25.626;2022-10-16T03:10:57;2.40;99.90
68385;DHT22;55336;43.062;25.626;2022-10-16T03:13:23;2.40;99.90
68385;DHT22;55336;43.062;25.626;2022-10-16T03:15:49;2.30;99.90
68385;DHT22;55336;43.062;25.626;2022-10-16T03:18:15;2.30;99.90
68385;DHT22;55336;43.062;25.626;2022-10-16T03:20:42;2.30;99.90
68385;DHT22;55336;43.062;25.626;2022-10-16T03:23:09;2.30;99.90
68385;DHT22;55336;43.062;25.626;2022-10-16T03:25:35;2.30;99.90
68385;DHT22;55336;43.062;25.626;2022-10-16T03:28:01;2.20;99.90
68385;DHT22;55336;43.062;25.626;2022-10-16T03:30:27;2.20;99.90
68385;DHT22;55336;43.062;25.626;2022-10-16T03:32:53;2.20;99.90
68385;DHT22;55336;43.062;25.626;2022-10-16T03:35:23;2.20;99.90
68385;DHT22;55336;43.062;25.626;2022-10-16T03:37:49;2.20;99.90
68385;DHT22;55336;43.062;25.626;2022-10-16T03:40:16;2.30;99.90
68385;DHT22;55336;43.062;25.626;2022-10-16T03:42:43;2.30;99.90
68385;DHT22;55336;43.062;25.626;2022-10-16T03:45:10;2.40;99.90
68385;DHT22;55336;43.062;25.626;2022-10-16T03:47:36;2.50;99.90
68385;DHT22;55336;43.062;25.626;2022-10-16T03:50:03;2.60;99.90
68385;DHT22;55336;43.062;25.626;2022-10-16T03:52:30;2.60;99.90
68385;DHT22;55336;43.062;25.626;2022-10-16T03:54:57;2.70;99.90
68385;DHT22;55336;43.062;25.626;2022-10-16T03:57:23;2.70;99.90
68385;DHT22;55336;43.062;25.626;2022-10-16T03:59:49;2.70;99.90
68385;DHT22;55336;43.062;25.626;2022-10-16T04:02:16;2.80;99.90
68385;DHT22;55336;43.062;25.626;2022-10-16T04:04:42;2.80;99.90
68385;DHT22;55336;43.062;25.626;2022-10-16T04:07:08;2.90;99.90
68385;DHT22;55336;43.062;25.626;2022-10-16T04:09:34;3.00;99.90
68385;DHT22;55336;43.062;25.626;2022-10-16T04:11:59;3.00;99.90
68385;DHT22;55336;43.062;25.626;2022-10-16T04:14:25;3.10;99.90
68385;DHT22;55336;43.062;25.626;2022-10-16T04:16:51;3.10;99.90
68385;DHT22;55336;43.062;25.626;2022-10-16T04:19:17;3.10;99.90
68385;DHT22;55336;43.062;25.626;2022-10-16T04:21:43;3.20;99.90
68385;DHT22;55336;43.062;25.626;2022-10-16T04:24:10;3.20;99.90
68385;DHT22;55336;43.062;25.626;2022-10-16T04:26:37;3.30;99.90
68385;DHT22;55336;43.062;25.626;2022-10-16T04:29:03;3.30;99.90
68385;DHT22;55336;43.062;25.626;2022-10-16T04:31:29;3.40;99.90
68385;DHT22;55336;43.062;25.626;2022-10-16T04:33:55;3.40;99.90
68385;DHT22;55336;43.062;25.626;2022-10-16T04:36:20;3.50;99.90
68385;DHT22;55336;43.062;25.626;2022-10-16T04:38:46;3.50;99.90
68385;DHT22;55336;43.062;25.626;2022-10-16T04:41:14;3.50;99.90
68385;DHT22;55336;43.062;25.626;2022-10-16T04:43:41;3.50;99.90
68385;DHT22;55336;43.062;25.626;2022-10-16T04:46:07;3.50;99.90
68385;DHT22;55336;43.062;25.626;2022-10-16T04:48:33;3.50;99.90
68385;DHT22;55336;43.062;25.626;2022-10-16T04:50:59;3.60;99.90
68385;DHT22;55336;43.062;25.626;2022-10-16T04:53:25;3.50;99.90
68385;DHT22;55336;43.062;25.626;2022-10-16T04:55:51;3.60;99.90
68385;DHT22;55336;43.062;25.626;2022-10-16T04:58:17;3.60;99.90
68385;DHT22;55336;43.062;25.626;2022-10-16T05:00:44;3.60;99.90
68385;DHT22;55336;43.062;25.626;2022-10-16T05:03:12;3.70;99.90
68385;DHT22;55336;43.062;25.626;2022-10-16T05:05:43;3.80;99.90
68385;DHT22;55336;43.062;25.626;2022-10-16T05:08:10;3.70;99.90
68385;DHT22;55336;43.062;25.626;2022-10-16T05:10:36;3.80;99.90
68385;DHT22;55336;43.062;25.626;2022-10-16T05:13:02;3.80;99.90
68385;DHT22;55336;43.062;25.626;2022-10-16T05:15:28;3.90;99.90
68385;DHT22;55336;43.062;25.626;2022-10-16T05:17:54;3.90;99.90
68385;DHT22;55336;43.062;25.626;2022-10-16T05:20:21;3.90;99.90
68385;DHT22;55336;43.062;25.626;2022-10-16T05:22:47;3.80;99.90
68385;DHT22;55336;43.062;25.626;2022-10-16T05:25:13;3.90;99.90
68385;DHT22;55336;43.062;25.626;2022-10-16T05:27:39;4.00;99.90
68385;DHT22;55336;43.062;25.626;2022-10-16T05:30:05;4.20;99.90
68385;DHT22;55336;43.062;25.626;2022-10-16T05:32:31;4.30;99.90
68385;DHT22;55336;43.062;25.626;2022-10-16T05:34:57;4.40;99.90
68385;DHT22;55336;43.062;25.626;2022-10-16T05:37:27;4.60;99.90
68385;DHT22;55336;43.062;25.626;2022-10-16T05:39:53;4.60;99.90
68385;DHT22;55336;43.062;25.626;2022-10-16T05:42:21;4.60;99.90
68385;DHT22;55336;43.062;25.626;2022-10-16T05:44:47;4.80;99.90
68385;DHT22;55336;43.062;25.626;2022-10-16T05:47:13;4.90;99.90
68385;DHT22;55336;43.062;25.626;2022-10-16T05:49:40;5.00;99.90
68385;DHT22;55336;43.062;25.626;2022-10-16T05:52:06;5.00;99.90
68385;DHT22;55336;43.062;25.626;2022-10-16T05:54:32;5.20;99.90
68385;DHT22;55336;43.062;25.626;2022-10-16T05:56:58;5.50;99.90
68385;DHT22;55336;43.062;25.626;2022-10-16T05:59:23;5.70;99.90
68385;DHT22;55336;43.062;25.626;2022-10-16T06:01:50;6.10;99.90
68385;DHT22;55336;43.062;25.626;2022-10-16T06:04:15;6.20;99.90
68385;DHT22;55336;43.062;25.626;2022-10-16T06:06:41;6.60;99.90
68385;DHT22;55336;43.062;25.626;2022-10-16T06:09:08;7.00;99.90
68385;DHT22;55336;43.062;25.626;2022-10-16T06:11:36;7.20;99.90
68385;DHT22;55336;43.062;25.626;2022-10-16T06:14:02;7.60;99.90
68385;DHT22;55336;43.062;25.626;2022-10-16T06:16:33;8.00;99.90
68385;DHT22;55336;43.062;25.626;2022-10-16T06:19:00;8.20;99.90
68385;DHT22;55336;43.062;25.626;2022-10-16T06:21:27;8.40;99.90
68385;DHT22;55336;43.062;25.626;2022-10-16T06:23:54;8.70;99.90
68385;DHT22;55336;43.062;25.626;2022-10-16T06:26:23;9.10;99.90
68385;DHT22;55336;43.062;25.626;2022-10-16T06:28:49;9.30;99.90
68385;DHT22;55336;43.062;25.626;2022-10-16T06:31:16;9.50;99.90
68385;DHT22;55336;43.062;25.626;2022-10-16T06:33:42;9.60;99.90
68385;DHT22;55336;43.062;25.626;2022-10-16T06:36:11;9.90;99.90
68385;DHT22;55336;43.062;25.626;2022-10-16T06:38:38;10.10;99.90
68385;DHT22;55336;43.062;25.626;2022-10-16T06:41:05;10.30;99.90
68385;DHT22;55336;43.062;25.626;2022-10-16T06:43:32;10.50;99.90
68385;DHT22;55336;43.062;25.626;2022-10-16T06:46:01;10.50;99.90
68385;DHT22;55336;43.062;25.626;2022-10-16T06:48:28;10.70;99.90
68385;DHT22;55336;43.062;25.626;2022-10-16T06:51:04;10.90;99.90
68385;DHT22;55336;43.062;25.626;2022-10-16T06:53:31;11.30;99.90
68385;DHT22;55336;43.062;25.626;2022-10-16T06:55:58;11.50;99.90
68385;DHT22;55336;43.062;25.626;2022-10-16T06:58:24;11.60;99.90
68385;DHT22;55336;43.062;25.626;2022-10-16T07:00:55;12.00;99.90
68385;DHT22;55336;43.062;25.626;2022-10-16T07:03:22;12.40;99.90
68385;DHT22;55336;43.062;25.626;2022-10-16T07:05:47;12.90;99.90
68385;DHT22;55336;43.062;25.626;2022-10-16T07:08:13;13.20;99.90
68385;DHT22;55336;43.062;25.626;2022-10-16T07:10:39;13.50;99.90
68385;DHT22;55336;43.062;25.626;2022-10-16T07:13:05;13.80;99.90
68385;DHT22;55336;43.062;25.626;2022-10-16T07:15:33;14.10;99.90
68385;DHT22;55336;43.062;25.626;2022-10-16T07:17:59;14.30;99.90
68385;DHT22;55336;43.062;25.626;2022-10-16T07:20:25;14.70;99.90
68385;DHT22;55336;43.062;25.626;2022-10-16T07:22:51;14.80;99.90
68385;DHT22;55336;43.062;25.626;2022-10-16T07:25:17;15.00;99.90
68385;DHT22;55336;43.062;25.626;2022-10-16T07:27:43;15.20;99.90
68385;DHT22;55336;43.062;25.626;2022-10-16T07:30:09;15.60;99.90
68385;DHT22;55336;43.062;25.626;2022-10-16T07:32:36;16.00;99.90
68385;DHT22;55336;43.062;25.626;2022-10-16T07:35:01;16.30;97.60
68385;DHT22;55336;43.062;25.626;2022-10-16T07:37:27;16.70;94.30
68385;DHT22;55336;43.062;25.626;2022-10-16T07:39:53;16.60;91.60
68385;DHT22;55336;43.062;25.626;2022-10-16T07:42:19;17.00;91.20
68385;DHT22;55336;43.062;25.626;2022-10-16T07:44:45;17.30;89.20
68385;DHT22;55336;43.062;25.626;2022-10-16T07:47:12;17.10;85.90
68385;DHT22;55336;43.062;25.626;2022-10-16T07:49:37;16.70;88.40
68385;DHT22;55336;43.062;25.626;2022-10-16T07:52:03;17.20;85.80
68385;DHT22;55336;43.062;25.626;2022-10-16T07:54:29;17.60;84.70
68385;DHT22;55336;43.062;25.626;2022-10-16T07:56:55;17.80;81.90
68385;DHT22;55336;43.062;25.626;2022-10-16T07:59:21;18.20;80.00
68385;DHT22;55336;43.062;25.626;2022-10-16T08:01:48;18.10;80.00
68385;DHT22;55336;43.062;25.626;2022-10-16T08:04:14;18.00;79.50
68385;DHT22;55336;43.062;25.626;2022-10-16T08:06:41;18.20;79.40
68385;DHT22;55336;43.062;25.626;2022-10-16T08:09:08;18.40;77.70
68385;DHT22;55336;43.062;25.626;2022-10-16T08:11:34;18.60;76.60
68385;DHT22;55336;43.062;25.626;2022-10-16T08:14:00;18.60;77.00
68385;DHT22;55336;43.062;25.626;2022-10-16T08:16:26;18.90;75.40
68385;DHT22;55336;43.062;25.626;2022-10-16T08:18:53;18.90;75.00
68385;DHT22;55336;43.062;25.626;2022-10-16T08:21:21;19.20;74.50
68385;DHT22;55336;43.062;25.626;2022-10-16T08:23:49;19.40;73.40
68385;DHT22;55336;43.062;25.626;2022-10-16T08:26:16;19.30;74.10
68385;DHT22;55336;43.062;25.626;2022-10-16T08:28:42;19.60;70.80
68385;DHT22;55336;43.062;25.626;2022-10-16T08:31:11;19.90;69.40
68385;DHT22;55336;43.062;25.626;2022-10-16T08:33:38;20.30;66.70
68385;DHT22;55336;43.062;25.626;2022-10-16T08:36:05;20.80;66.10
68385;DHT22;55336;43.062;25.626;2022-10-16T08:38:32;20.90;63.40
68385;DHT22;55336;43.062;25.626;2022-10-16T08:41:23;20.90;61.50
68385;DHT22;55336;43.062;25.626;2022-10-16T08:47:33;20.70;61.10
68385;DHT22;55336;43.062;25.626;2022-10-16T08:50:09;20.70;58.20
68385;DHT22;55336;43.062;25.626;2022-10-16T08:52:39;20.50;59.90
68385;DHT22;55336;43.062;25.626;2022-10-16T08:55:06;20.80;57.90
68385;DHT22;55336;43.062;25.626;2022-10-16T08:57:32;20.80;57.50
68385;DHT22;55336;43.062;25.626;2022-10-16T09:00:04;21.20;56.20
68385;DHT22;55336;43.062;25.626;2022-10-16T09:02:38;21.00;56.60
68385;DHT22;55336;43.062;25.626;2022-10-16T09:11:18;21.10;56.30
68385;DHT22;55336;43.062;25.626;2022-10-16T09:14:07;20.40;57.10
68385;DHT22;55336;43.062;25.626;2022-10-16T09:16:44;20.40;57.00
68385;DHT22;55336;43.062;25.626;2022-10-16T09:19:29;20.80;54.10
68385;DHT22;55336;43.062;25.626;2022-10-16T09:21:59;21.00;54.70
68385;DHT22;55336;43.062;25.626;2022-10-16T09:24:27;21.30;52.90
68385;DHT22;55336;43.062;25.626;2022-10-16T09:26:53;21.90;50.70
68385;DHT22;55336;43.062;25.626;2022-10-16T09:29:20;22.00;49.30
68385;DHT22;55336;43.062;25.626;2022-10-16T09:31:49;22.40;49.00
68385;DHT22;55336;43.062;25.626;2022-10-16T09:34:27;22.80;46.70
68385;DHT22;55336;43.062;25.626;2022-10-16T09:37:00;22.60;45.70
68385;DHT22;55336;43.062;25.626;2022-10-16T09:39:27;22.60;45.70
68385;DHT22;55336;43.062;25.626;2022-10-16T09:41:55;22.70;46.50
68385;DHT22;55336;43.062;25.626;2022-10-16T09:44:29;23.10;45.30
68385;DHT22;55336;43.062;25.626;2022-10-16T09:47:11;22.70;44.50
68385;DHT22;55336;43.062;25.626;2022-10-16T09:49:38;22.80;45.90
68385;DHT22;55336;43.062;25.626;2022-10-16T09:52:14;23.30;44.50
68385;DHT22;55336;43.062;25.626;2022-10-16T09:57:15;23.50;43.40
68385;DHT22;55336;43.062;25.626;2022-10-16T09:59:55;23.10;43.40
68385;DHT22;55336;43.062;25.626;2022-10-16T10:02:34;23.00;42.20
68385;DHT22;55336;43.062;25.626;2022-10-16T10:05:02;23.00;42.10
68385;DHT22;55336;43.062;25.626;2022-10-16T10:07:32;22.80;42.60
68385;DHT22;55336;43.062;25.626;2022-10-16T10:10:01;22.70;43.00
68385;DHT22;55336;43.062;25.626;2022-10-16T10:12:28;22.80;43.90
68385;DHT22;55336;43.062;25.626;2022-10-16T10:15:04;23.00;43.00
68385;DHT22;55336;43.062;25.626;2022-10-16T10:17:31;22.70;42.70
68385;DHT22;55336;43.062;25.626;2022-10-16T10:19:58;22.90;42.60
68385;DHT22;55336;43.062;25.626;2022-10-16T10:22:41;23.00;41.70
68385;DHT22;55336;43.062;25.626;2022-10-16T10:27:56;22.30;43.60
68385;DHT22;55336;43.062;25.626;2022-10-16T10:31:03;22.60;43.40
68385;DHT22;55336;43.062;25.626;2022-10-16T10:36:41;22.70;42.80
68385;DHT22;55336;43.062;25.626;2022-10-16T10:42:09;23.40;42.40
68385;DHT22;55336;43.062;25.626;2022-10-16T10:47:33;22.00;44.70
68385;DHT22;55336;43.062;25.626;2022-10-16T10:50:31;23.00;43.30
68385;DHT22;55336;43.062;25.626;2022-10-16T10:53:03;23.40;41.60
68385;DHT22;55336;43.062;25.626;2022-10-16T10:58:42;22.80;42.10
68385;DHT22;55336;43.062;25.626;2022-10-16T11:01:22;22.30;42.00
68385;DHT22;55336;43.062;25.626;2022-10-16T11:07:19;23.00;42.30
68385;DHT22;55336;43.062;25.626;2022-10-16T11:09:53;23.00;41.50
68385;DHT22;55336;43.062;25.626;2022-10-16T11:12:38;23.20;40.90
68385;DHT22;55336;43.062;25.626;2022-10-16T11:15:17;23.10;41.00
68385;DHT22;55336;43.062;25.626;2022-10-16T11:18:04;23.40;40.20
68385;DHT22;55336;43.062;25.626;2022-10-16T11:23:51;23.50;39.60
68385;DHT22;55336;43.062;25.626;2022-10-16T11:26:28;22.90;41.70
68385;DHT22;55336;43.062;25.626;2022-10-16T11:28:56;22.70;42.60
68385;DHT22;55336;43.062;25.626;2022-10-16T11:31:42;22.90;42.00
68385;DHT22;55336;43.062;25.626;2022-10-16T11:37:02;23.10;42.70
68385;DHT22;55336;43.062;25.626;2022-10-16T11:39:31;22.80;42.80
68385;DHT22;55336;43.062;25.626;2022-10-16T11:42:27;23.20;42.10
68385;DHT22;55336;43.062;25.626;2022-10-16T11:48:24;23.40;40.30
68385;DHT22;55336;43.062;25.626;2022-10-16T11:55:55;23.40;40.70
68385;DHT22;55336;43.062;25.626;2022-10-16T11:58:29;23.10;41.80
68385;DHT22;55336;43.062;25.626;2022-10-16T12:08:54;23.00;42.80
68385;DHT22;55336;43.062;25.626;2022-10-16T12:16:57;21.90;44.50
68385;DHT22;55336;43.062;25.626;2022-10-16T12:19:28;22.30;45.30
68385;DHT22;55336;43.062;25.626;2022-10-16T12:22:01;22.80;43.50
68385;DHT22;55336;43.062;25.626;2022-10-16T12:26:54;23.20;43.00
68385;DHT22;55336;43.062;25.626;2022-10-16T12:29:33;23.50;42.10
68385;DHT22;55336;43.062;25.626;2022-10-16T12:32:00;23.40;40.70
68385;DHT22;55336;43.062;25.626;2022-10-16T12:34:38;23.50;41.50
68385;DHT22;55336;43.062;25.626;2022-10-16T12:38:04;23.40;41.10
68385;DHT22;55336;43.062;25.626;2022-10-16T12:39:57;23.20;41.60
68385;DHT22;55336;43.062;25.626;2022-10-16T12:44:53;22.50;43.70
68385;DHT22;55336;43.062;25.626;2022-10-16T12:49:56;22.40;45.00
68385;DHT22;55336;43.062;25.626;2022-10-16T12:52:40;22.40;43.20
68385;DHT22;55336;43.062;25.626;2022-10-16T12:55:18;22.30;43.20
68385;DHT22;55336;43.062;25.626;2022-10-16T13:03:20;21.80;44.20
68385;DHT22;55336;43.062;25.626;2022-10-16T13:06:17;22.00;44.90
68385;DHT22;55336;43.062;25.626;2022-10-16T13:09:14;22.10;43.80
68385;DHT22;55336;43.062;25.626;2022-10-16T13:20:37;23.00;41.10
68385;DHT22;55336;43.062;25.626;2022-10-16T13:23:17;23.20;43.60
68385;DHT22;55336;43.062;25.626;2022-10-16T13:28:32;23.80;41.00
68385;DHT22;55336;43.062;25.626;2022-10-16T13:31:00;23.70;42.00
68385;DHT22;55336;43.062;25.626;2022-10-16T13:33:45;23.70;41.20
68385;DHT22;55336;43.062;25.626;2022-10-16T13:36:29;23.40;41.20
68385;DHT22;55336;43.062;25.626;2022-10-16T13:39:13;23.20;42.10
68385;DHT22;55336;43.062;25.626;2022-10-16T13:41:40;23.30;42.00
68385;DHT22;55336;43.062;25.626;2022-10-16T13:44:14;23.20;42.20
68385;DHT22;55336;43.062;25.626;2022-10-16T13:46:41;23.40;42.30
68385;DHT22;55336;43.062;25.626;2022-10-16T13:49:16;23.50;41.00
68385;DHT22;55336;43.062;25.626;2022-10-16T13:51:59;23.50;40.80
68385;DHT22;55336;43.062;25.626;2022-10-16T13:54:27;23.20;39.90
68385;DHT22;55336;43.062;25.626;2022-10-16T13:56:54;23.30;40.60
68385;DHT22;55336;43.062;25.626;2022-10-16T13:59:27;23.40;40.30
68385;DHT22;55336;43.062;25.626;2022-10-16T14:01:58;23.40;39.30
68385;DHT22;55336;43.062;25.626;2022-10-16T14:04:29;23.40;40.40
68385;DHT22;55336;43.062;25.626;2022-10-16T14:06:57;23.60;41.00
68385;DHT22;55336;43.062;25.626;2022-10-16T14:09:28;23.60;38.60
68385;DHT22;55336;43.062;25.626;2022-10-16T14:12:08;23.40;39.20
68385;DHT22;55336;43.062;25.626;2022-10-16T14:14:41;23.30;39.30
68385;DHT22;55336;43.062;25.626;2022-10-16T14:17:21;23.20;40.40
68385;DHT22;55336;43.062;25.626;2022-10-16T14:19:51;23.40;40.50
68385;DHT22;55336;43.062;25.626;2022-10-16T14:22:39;23.20;40.90
68385;DHT22;55336;43.062;25.626;2022-10-16T14:30:32;23.00;42.50
68385;DHT22;55336;43.062;25.626;2022-10-16T14:33:00;23.00;42.90
68385;DHT22;55336;43.062;25.626;2022-10-16T14:35:36;22.60;41.70
68385;DHT22;55336;43.062;25.626;2022-10-16T14:38:04;22.00;42.40
68385;DHT22;55336;43.062;25.626;2022-10-16T14:40:32;22.10;42.50
68385;DHT22;55336;43.062;25.626;2022-10-16T14:43:00;22.30;42.90
68385;DHT22;55336;43.062;25.626;2022-10-16T14:45:32;22.00;42.00
68385;DHT22;55336;43.062;25.626;2022-10-16T14:48:01;21.30;47.50
68385;DHT22;55336;43.062;25.626;2022-10-16T14:50:28;21.10;50.60
68385;DHT22;55336;43.062;25.626;2022-10-16T14:52:54;20.60;51.30
68385;DHT22;55336;43.062;25.626;2022-10-16T14:55:21;19.70;53.70
68385;DHT22;55336;43.062;25.626;2022-10-16T14:57:47;19.10;54.20
68385;DHT22;55336;43.062;25.626;2022-10-16T15:00:22;18.40;55.70
68385;DHT22;55336;43.062;25.626;2022-10-16T15:02:49;17.80;57.60
68385;DHT22;55336;43.062;25.626;2022-10-16T15:05:25;17.40;59.80
68385;DHT22;55336;43.062;25.626;2022-10-16T15:07:53;16.90;62.60
68385;DHT22;55336;43.062;25.626;2022-10-16T15:10:21;16.50;63.50
68385;DHT22;55336;43.062;25.626;2022-10-16T15:12:47;16.20;66.70
68385;DHT22;55336;43.062;25.626;2022-10-16T15:17:45;15.50;70.10
68385;DHT22;55336;43.062;25.626;2022-10-16T15:20:11;15.10;72.90
68385;DHT22;55336;43.062;25.626;2022-10-16T15:22:37;14.90;73.20
68385;DHT22;55336;43.062;25.626;2022-10-16T15:27:48;14.40;76.20
68385;DHT22;55336;43.062;25.626;2022-10-16T15:30:14;14.10;76.00
68385;DHT22;55336;43.062;25.626;2022-10-16T15:32:40;13.80;78.90
68385;DHT22;55336;43.062;25.626;2022-10-16T15:35:09;13.50;80.80
68385;DHT22;55336;43.062;25.626;2022-10-16T15:37:35;13.30;82.50
68385;DHT22;55336;43.062;25.626;2022-10-16T15:40:00;13.00;85.10
68385;DHT22;55336;43.062;25.626;2022-10-16T15:42:26;12.80;85.50
68385;DHT22;55336;43.062;25.626;2022-10-16T15:44:52;12.60;89.40
68385;DHT22;55336;43.062;25.626;2022-10-16T15:47:18;12.30;90.50
68385;DHT22;55336;43.062;25.626;2022-10-16T15:49:46;12.10;94.70
68385;DHT22;55336;43.062;25.626;2022-10-16T15:52:12;11.90;98.80
68385;DHT22;55336;43.062;25.626;2022-10-16T15:54:37;11.70;99.90
68385;DHT22;55336;43.062;25.626;2022-10-16T15:57:03;11.60;99.90
68385;DHT22;55336;43.062;25.626;2022-10-16T15:59:29;11.40;99.90
68385;DHT22;55336;43.062;25.626;2022-10-16T16:01:55;11.20;99.90
68385;DHT22;55336;43.062;25.626;2022-10-16T16:04:21;11.00;99.90
68385;DHT22;55336;43.062;25.626;2022-10-16T16:06:47;10.90;99.90
68385;DHT22;55336;43.062;25.626;2022-10-16T16:09:13;10.70;99.90
68385;DHT22;55336;43.062;25.626;2022-10-16T16:11:39;10.60;99.90
68385;DHT22;55336;43.062;25.626;2022-10-16T16:14:06;10.50;99.90
68385;DHT22;55336;43.062;25.626;2022-10-16T16:16:32;10.30;99.90
68385;DHT22;55336;43.062;25.626;2022-10-16T16:19:04;10.10;99.90
68385;DHT22;55336;43.062;25.626;2022-10-16T16:21:32;10.00;99.90
68385;DHT22;55336;43.062;25.626;2022-10-16T16:23:58;9.90;99.90
68385;DHT22;55336;43.062;25.626;2022-10-16T16:26:28;9.80;99.90
68385;DHT22;55336;43.062;25.626;2022-10-16T16:28:58;9.70;99.90
68385;DHT22;55336;43.062;25.626;2022-10-16T16:31:24;9.50;99.90
68385;DHT22;55336;43.062;25.626;2022-10-16T16:33:50;9.40;99.90
68385;DHT22;55336;43.062;25.626;2022-10-16T16:36:17;9.30;99.90
68385;DHT22;55336;43.062;25.626;2022-10-16T16:38:44;9.20;99.90
68385;DHT22;55336;43.062;25.626;2022-10-16T16:41:20;9.00;99.90
68385;DHT22;55336;43.062;25.626;2022-10-16T16:43:46;9.00;99.90
68385;DHT22;55336;43.062;25.626;2022-10-16T16:46:14;8.80;99.90
68385;DHT22;55336;43.062;25.626;2022-10-16T16:48:41;8.70;99.90
68385;DHT22;55336;43.062;25.626;2022-10-16T16:51:14;8.70;99.90
68385;DHT22;55336;43.062;25.626;2022-10-16T16:53:41;8.60;99.90
68385;DHT22;55336;43.062;25.626;2022-10-16T16:56:07;8.50;99.90
68385;DHT22;55336;43.062;25.626;2022-10-16T16:58:33;8.30;99.90
68385;DHT22;55336;43.062;25.626;2022-10-16T17:01:00;8.20;99.90
68385;DHT22;55336;43.062;25.626;2022-10-16T17:03:34;8.20;99.90
68385;DHT22;55336;43.062;25.626;2022-10-16T17:06:03;8.10;99.90
68385;DHT22;55336;43.062;25.626;2022-10-16T17:08:29;8.00;99.90
68385;DHT22;55336;43.062;25.626;2022-10-16T17:10:56;8.00;99.90
68385;DHT22;55336;43.062;25.626;2022-10-16T17:13:27;7.80;99.90
68385;DHT22;55336;43.062;25.626;2022-10-16T17:15:54;7.70;99.90
68385;DHT22;55336;43.062;25.626;2022-10-16T17:18:22;7.70;99.90
68385;DHT22;55336;43.062;25.626;2022-10-16T17:20:49;7.60;99.90
68385;DHT22;55336;43.062;25.626;2022-10-16T17:23:16;7.50;99.90
68385;DHT22;55336;43.062;25.626;2022-10-16T17:25:42;7.40;99.90
68385;DHT22;55336;43.062;25.626;2022-10-16T17:28:08;7.40;99.90